Time;durP1;ratioP1;P1;durP2;ratioP2;P2;SDS_P1;SDS_P2;PMS_P1;PMS_P2;Temp;Humidity;BMP_temperature;BMP_pressure;BME280_temperature;BME280_humidity;BME280_pressure;Samples;Min_cycle;Max_cycle;Signal;HPM_P1;HPM_P2
2022/03/05 00:01:18;;;;;;;7.05;4.68;;;26.20;99.90;;;;;;5017333;28;20022;-72
2022/03/05 00:03:46;;;;;;;7.43;4.53;;;26.20;99.90;;;;;;5028085;28;20047;-73
2022/03/05 00:06:14;;;;;;;7.72;4.60;;;26.50;99.90;;;;;;5024770;28;20101;-71
2022/03/05 00:08:41;;;;;;;9.10;5.28;;;26.50;99.90;;;;;;5018521;28;20059;-73
2022/03/05 00:11:09;;;;;;;6.57;4.30;;;26.70;99.90;;;;;;5027377;28;20075;-73
2022/03/05 00:13:36;;;;;;;7.85;4.35;;;26.80;99.90;;;;;;5027221;28;20087;-73
2022/03/05 00:16:04;;;;;;;9.27;5.78;;;26.90;99.90;;;;;;5024528;28;20033;-71
2022/03/05 00:18:32;;;;;;;7.57;5.28;;;26.80;99.90;;;;;;5023809;28;20465;-72
2022/03/05 00:20:59;;;;;;;6.32;4.90;;;26.60;99.90;;;;;;5020922;28;20077;-73
2022/03/05 00:23:27;;;;;;;7.53;4.82;;;26.40;99.90;;;;;;5028113;28;20121;-74
2022/03/05 00:25:54;;;;;;;12.52;5.65;;;26.30;99.90;;;;;;5025800;28;20455;-73
2022/03/05 00:28:21;;;;;;;8.23;5.13;;;26.20;99.90;;;;;;5029410;28;20445;-75
2022/03/05 00:30:49;;;;;;;8.43;6.25;;;26.10;99.90;;;;;;5025567;28;20052;-75
2022/03/05 00:33:19;;;;;;;8.13;5.57;;;26.00;99.90;;;;;;5032524;28;20091;-75
2022/03/05 00:35:47;;;;;;;12.57;6.85;;;25.90;99.90;;;;;;5030948;28;20076;-75
2022/03/05 00:38:14;;;;;;;11.13;6.72;;;26.00;99.90;;;;;;5022235;28;20033;-75
2022/03/05 00:40:41;;;;;;;8.93;5.60;;;25.90;99.90;;;;;;5023377;28;20406;-73
2022/03/05 00:43:09;;;;;;;11.20;6.20;;;26.00;99.90;;;;;;5032480;28;20430;-75
2022/03/05 00:45:37;;;;;;;10.30;5.22;;;26.00;99.90;;;;;;5025461;28;21142;-75
2022/03/05 00:48:05;;;;;;;7.93;4.80;;;25.90;99.90;;;;;;5028477;28;20067;-75
2022/03/05 00:50:33;;;;;;;11.80;6.50;;;26.10;99.90;;;;;;5021520;28;20025;-73
2022/03/05 00:53:00;;;;;;;10.45;6.28;;;26.30;99.90;;;;;;5030794;28;20053;-75
2022/03/05 00:55:28;;;;;;;8.40;5.45;;;26.50;99.90;;;;;;5031303;28;20543;-75
2022/03/05 00:57:55;;;;;;;7.47;5.03;;;26.60;99.90;;;;;;5026913;28;20041;-74
2022/03/05 01:00:22;;;;;;;14.98;5.63;;;26.90;99.90;;;;;;5031479;28;20484;-74
2022/03/05 01:02:50;;;;;;;11.80;5.47;;;27.30;99.90;;;;;;5031689;28;20078;-74
2022/03/05 01:05:17;;;;;;;10.05;5.35;;;27.50;99.90;;;;;;5024208;28;20108;-74
2022/03/05 01:07:44;;;;;;;9.90;5.25;;;27.70;99.90;;;;;;5030681;28;20021;-74
2022/03/05 01:10:12;;;;;;;10.20;5.80;;;28.00;99.90;;;;;;5026858;28;20077;-74
2022/03/05 01:12:39;;;;;;;12.90;6.30;;;28.00;99.90;;;;;;5027504;28;20037;-74
2022/03/05 01:15:08;;;;;;;8.50;5.60;;;28.10;99.90;;;;;;5026632;28;20017;-75
2022/03/05 01:17:35;;;;;;;9.43;5.22;;;28.30;99.90;;;;;;5013578;28;20129;-73
2022/03/05 01:20:03;;;;;;;6.90;5.53;;;28.30;99.90;;;;;;5027042;28;20569;-75
2022/03/05 01:22:31;;;;;;;8.15;4.90;;;28.40;99.90;;;;;;5021487;28;20037;-73
2022/03/05 01:24:58;;;;;;;14.18;7.95;;;28.50;99.90;;;;;;5020893;28;20025;-75
2022/03/05 01:27:25;;;;;;;8.73;4.43;;;28.50;99.90;;;;;;5027855;28;20545;-74
2022/03/05 01:29:53;;;;;;;7.75;3.97;;;28.40;99.90;;;;;;5022150;28;20404;-72
2022/03/05 01:32:20;;;;;;;8.25;4.55;;;28.40;99.90;;;;;;5029450;28;20030;-71
2022/03/05 01:34:47;;;;;;;8.02;4.30;;;28.30;99.90;;;;;;5029084;28;20074;-73
2022/03/05 01:37:15;;;;;;;6.82;4.03;;;28.20;99.90;;;;;;5030510;28;20485;-74
2022/03/05 01:39:43;;;;;;;7.60;3.53;;;28.10;99.90;;;;;;5023995;28;20029;-76
2022/03/05 01:42:10;;;;;;;8.02;4.38;;;28.00;99.90;;;;;;5021050;28;20059;-74
2022/03/05 01:44:38;;;;;;;6.55;3.63;;;28.00;99.90;;;;;;5025736;28;20026;-74
2022/03/05 01:47:07;;;;;;;4.78;3.72;;;28.00;99.90;;;;;;5031108;28;20117;-75
2022/03/05 01:49:34;;;;;;;6.43;3.83;;;28.10;99.90;;;;;;5030028;28;20392;-74
2022/03/05 01:52:02;;;;;;;6.82;4.03;;;28.40;99.90;;;;;;5024030;28;20157;-77
2022/03/05 01:54:30;;;;;;;5.32;3.47;;;28.50;99.90;;;;;;5027583;28;20021;-73
2022/03/05 01:56:59;;;;;;;5.15;4.13;;;28.70;99.90;;;;;;5030159;28;20194;-73
2022/03/05 01:59:26;;;;;;;5.45;3.05;;;28.70;99.90;;;;;;5026935;28;20061;-74
2022/03/05 02:01:54;;;;;;;6.20;3.60;;;28.70;99.90;;;;;;5027987;28;20021;-73
2022/03/05 02:04:21;;;;;;;5.60;4.07;;;28.80;99.90;;;;;;5030980;28;20450;-74
2022/03/05 02:06:51;;;;;;;6.95;3.00;;;28.80;99.90;;;;;;5024545;28;20034;-75
2022/03/05 02:09:18;;;;;;;6.88;3.42;;;28.90;99.90;;;;;;5029221;28;20026;-73
2022/03/05 02:11:46;;;;;;;6.57;3.65;;;28.80;99.90;;;;;;5027612;28;20473;-74
2022/03/05 02:14:18;;;;;;;6.53;3.45;;;28.70;99.90;;;;;;5027260;28;20029;-74
2022/03/05 02:16:46;;;;;;;7.57;3.97;;;28.70;99.90;;;;;;5027190;28;20377;-76
2022/03/05 02:19:13;;;;;;;6.10;3.33;;;28.60;99.90;;;;;;5023668;28;20038;-75
2022/03/05 02:21:40;;;;;;;7.65;2.60;;;28.60;99.90;;;;;;5026270;28;20456;-74
2022/03/05 02:24:08;;;;;;;4.80;3.08;;;28.50;99.90;;;;;;5027113;28;20021;-75
2022/03/05 02:26:36;;;;;;;7.45;3.88;;;28.40;99.90;;;;;;5018401;28;20036;-73
2022/03/05 02:29:03;;;;;;;6.55;3.60;;;28.40;99.90;;;;;;5024068;28;20054;-73
2022/03/05 02:31:31;;;;;;;6.32;2.75;;;28.30;99.90;;;;;;5021048;28;20108;-71
2022/03/05 02:34:00;;;;;;;5.75;3.63;;;28.10;99.90;;;;;;5025517;28;20030;-78
2022/03/05 02:36:27;;;;;;;6.30;3.33;;;28.10;99.90;;;;;;5027623;28;20033;-76
2022/03/05 02:38:55;;;;;;;6.63;3.55;;;28.00;99.90;;;;;;5017428;28;20049;-77
2022/03/05 02:41:24;;;;;;;6.80;3.30;;;27.90;99.90;;;;;;5028072;28;20029;-77
2022/03/05 02:43:51;;;;;;;6.82;3.95;;;27.80;99.90;;;;;;5020269;28;20482;-72
2022/03/05 02:46:18;;;;;;;5.82;3.40;;;27.80;99.90;;;;;;5020099;28;20117;-73
2022/03/05 02:48:46;;;;;;;8.18;4.10;;;27.70;99.90;;;;;;5026055;28;20029;-73
2022/03/05 02:51:13;;;;;;;5.82;4.07;;;27.70;99.90;;;;;;5030761;28;20034;-72
2022/03/05 02:53:40;;;;;;;8.52;3.47;;;27.80;99.90;;;;;;5024349;28;20052;-73
2022/03/05 02:56:09;;;;;;;6.85;4.18;;;27.90;99.90;;;;;;5018523;28;20026;-74
2022/03/05 02:58:36;;;;;;;6.43;3.38;;;28.10;99.90;;;;;;5027644;28;20077;-75
2022/03/05 03:01:03;;;;;;;8.18;4.07;;;28.20;99.90;;;;;;5029047;28;20033;-73
2022/03/05 03:03:31;;;;;;;7.13;4.53;;;28.40;99.90;;;;;;5025379;28;20022;-73
2022/03/05 03:05:58;;;;;;;10.15;4.25;;;28.60;99.90;;;;;;5028981;28;20025;-75
2022/03/05 03:08:26;;;;;;;8.55;3.60;;;28.70;99.90;;;;;;5026814;28;20113;-76
2022/03/05 03:10:53;;;;;;;6.28;4.00;;;28.90;99.90;;;;;;5031334;28;20021;-76
2022/03/05 03:13:20;;;;;;;9.35;4.05;;;29.00;99.90;;;;;;5028489;28;20037;-75
2022/03/05 03:15:48;;;;;;;7.35;4.10;;;28.90;99.90;;;;;;5025842;28;20022;-75
2022/03/05 03:18:17;;;;;;;6.95;4.03;;;28.70;99.90;;;;;;5027366;28;20033;-76
2022/03/05 03:20:44;;;;;;;6.18;3.63;;;28.60;99.90;;;;;;5027061;28;20453;-76
2022/03/05 03:23:12;;;;;;;6.57;4.43;;;28.70;99.90;;;;;;5028199;28;20033;-75
2022/03/05 03:25:40;;;;;;;7.07;3.72;;;28.80;99.90;;;;;;5023039;28;20379;-76
2022/03/05 03:28:08;;;;;;;6.72;3.50;;;28.70;99.90;;;;;;5029018;28;20053;-76
2022/03/05 03:30:36;;;;;;;6.72;3.78;;;28.60;99.90;;;;;;5023666;28;20029;-75
2022/03/05 03:33:03;;;;;;;7.63;4.15;;;28.60;99.90;;;;;;5027920;28;20030;-75
2022/03/05 03:35:31;;;;;;;5.50;3.78;;;28.70;99.90;;;;;;5017440;28;20014;-78
2022/03/05 03:37:58;;;;;;;8.98;4.75;;;28.70;99.90;;;;;;5024440;28;20044;-76
2022/03/05 03:40:25;;;;;;;6.15;3.60;;;28.80;99.90;;;;;;5026819;28;20033;-75
2022/03/05 03:42:53;;;;;;;7.15;4.00;;;29.00;99.90;;;;;;5029074;28;20033;-77
2022/03/05 03:45:21;;;;;;;7.80;4.65;;;29.20;99.90;;;;;;5024649;28;20020;-76
2022/03/05 03:47:50;;;;;;;5.40;4.28;;;29.30;99.90;;;;;;5027787;28;20029;-75
2022/03/05 03:50:20;;;;;;;6.75;4.40;;;29.40;99.90;;;;;;5025319;28;20084;-75
2022/03/05 03:52:48;;;;;;;7.53;4.35;;;29.60;99.90;;;;;;5029646;28;20040;-74
2022/03/05 03:55:19;;;;;;;6.53;4.00;;;29.80;99.90;;;;;;5027601;28;20045;-75
2022/03/05 03:57:47;;;;;;;7.90;4.63;;;29.70;99.90;;;;;;5026442;28;20041;-73
2022/03/05 04:00:16;;;;;;;7.07;4.38;;;29.50;99.90;;;;;;5028148;28;20053;-78
2022/03/05 04:02:44;;;;;;;5.45;3.55;;;29.20;99.90;;;;;;5017537;28;20377;-75
2022/03/05 04:05:12;;;;;;;8.40;4.00;;;29.20;99.90;;;;;;5026222;28;20032;-77
2022/03/05 04:10:26;;;;;;;6.93;4.35;;;29.70;99.90;;;;;;5022912;28;20072;-77
2022/03/05 04:12:53;;;;;;;8.75;4.57;;;29.90;99.90;;;;;;5028877;28;20535;-77
2022/03/05 04:15:21;;;;;;;5.53;3.08;;;30.00;99.90;;;;;;5032898;28;20113;-77
2022/03/05 04:17:50;;;;;;;6.28;4.35;;;30.20;99.90;;;;;;5032819;28;20037;-78
2022/03/05 04:20:18;;;;;;;7.30;3.70;;;29.90;99.90;;;;;;5024904;28;20024;-78
2022/03/05 04:22:45;;;;;;;5.50;3.70;;;29.80;99.90;;;;;;5029006;28;20065;-82
2022/03/05 04:25:13;;;;;;;5.90;4.50;;;29.90;99.90;;;;;;5027608;28;20028;-79
2022/03/05 04:27:41;;;;;;;7.05;3.83;;;30.30;99.90;;;;;;5031891;28;20107;-74
2022/03/05 04:30:09;;;;;;;6.25;4.78;;;30.60;99.90;;;;;;5032834;28;20147;-74
2022/03/05 04:32:38;;;;;;;5.40;3.97;;;30.50;99.90;;;;;;5025956;28;20112;-80
2022/03/05 04:35:06;;;;;;;8.10;4.93;;;30.30;99.90;;;;;;5030457;28;20384;-79
2022/03/05 04:37:34;;;;;;;7.43;3.80;;;30.20;99.90;;;;;;5028337;28;20464;-77
2022/03/05 04:40:01;;;;;;;7.68;3.58;;;30.00;99.90;;;;;;5029480;28;20137;-76
2022/03/05 04:42:29;;;;;;;7.65;4.20;;;29.70;99.90;;;;;;5027064;28;20075;-76
2022/03/05 04:44:56;;;;;;;5.95;4.03;;;29.30;99.90;;;;;;5030925;28;20076;-76
2022/03/05 04:47:24;;;;;;;6.35;3.85;;;29.00;99.90;;;;;;5026424;28;20030;-77
2022/03/05 04:49:51;;;;;;;7.55;4.88;;;28.80;99.90;;;;;;5022891;28;20358;-78
2022/03/05 04:52:18;;;;;;;11.13;4.15;;;28.70;99.90;;;;;;5027330;28;20026;-76
2022/03/05 04:54:46;;;;;;;8.02;4.95;;;28.60;99.90;;;;;;5025850;28;20120;-76
2022/03/05 04:57:13;;;;;;;7.43;5.22;;;28.60;99.90;;;;;;5031372;28;20044;-76
2022/03/05 04:59:40;;;;;;;8.93;4.97;;;28.70;99.90;;;;;;5025977;28;20401;-77
2022/03/05 05:02:08;;;;;;;9.00;4.43;;;28.80;99.90;;;;;;5026087;28;20116;-80
2022/03/05 05:04:35;;;;;;;6.25;4.60;;;29.00;99.90;;;;;;5028510;28;20026;-77
2022/03/05 05:07:02;;;;;;;10.18;4.82;;;29.20;99.90;;;;;;5029105;28;20067;-76
2022/03/05 05:09:30;;;;;;;9.60;4.53;;;29.10;99.90;;;;;;5024281;28;20113;-76
2022/03/05 05:11:58;;;;;;;8.25;4.97;;;29.00;99.90;;;;;;5025766;28;20083;-77
2022/03/05 05:14:25;;;;;;;6.60;5.10;;;29.10;99.90;;;;;;5030553;28;20052;-77
2022/03/05 05:16:53;;;;;;;8.25;4.47;;;29.00;99.90;;;;;;5025317;28;20168;-78
2022/03/05 05:19:28;;;;;;;7.07;4.55;;;28.90;99.90;;;;;;5022852;28;20061;-77
2022/03/05 05:22:02;;;;;;;7.05;4.50;;;28.90;99.90;;;;;;5031463;28;20029;-78
2022/03/05 05:24:32;;;;;;;11.70;4.95;;;28.70;99.90;;;;;;5031480;28;20449;-76
2022/03/05 05:27:13;;;;;;;9.23;5.38;;;28.70;99.90;;;;;;5030680;28;20037;-80
2022/03/05 05:48:44;;;;;;;7.80;5.30;;;28.40;99.90;;;;;;4995178;28;20424;-74
2022/03/05 05:51:11;;;;;;;7.93;5.60;;;28.30;99.90;;;;;;5008144;28;20021;-73
2022/03/05 05:53:39;;;;;;;8.25;4.90;;;28.40;99.90;;;;;;5040945;28;20030;-73
2022/03/05 05:56:06;;;;;;;7.03;4.95;;;28.30;99.90;;;;;;5006903;28;20030;-74
2022/03/05 05:58:34;;;;;;;9.50;5.60;;;28.20;99.90;;;;;;5009257;28;20068;-73
2022/03/05 06:01:02;;;;;;;10.30;6.15;;;28.20;99.90;;;;;;5009627;28;20022;-74
2022/03/05 06:03:30;;;;;;;9.27;5.43;;;28.10;99.90;;;;;;5010300;28;20158;-73
2022/03/05 06:06:00;;;;;;;9.52;5.43;;;28.00;99.90;;;;;;5008867;28;20072;-75
2022/03/05 06:08:28;;;;;;;7.15;5.10;;;27.90;99.90;;;;;;5009736;28;20022;-73
2022/03/05 06:10:57;;;;;;;8.10;5.90;;;27.90;99.90;;;;;;5010174;28;20088;-74
2022/03/05 06:13:24;;;;;;;7.55;5.57;;;28.00;99.90;;;;;;5009789;28;20037;-73
2022/03/05 06:15:52;;;;;;;9.73;5.90;;;27.80;99.90;;;;;;5006987;28;20030;-75
2022/03/05 06:18:19;;;;;;;8.48;5.38;;;27.80;99.90;;;;;;5005802;28;20061;-75
2022/03/05 06:20:47;;;;;;;8.30;5.20;;;27.80;99.90;;;;;;5009822;28;20486;-74
2022/03/05 06:23:14;;;;;;;10.07;5.35;;;27.80;99.90;;;;;;5009530;28;20026;-74
2022/03/05 06:25:41;;;;;;;8.40;5.00;;;27.80;99.90;;;;;;5010074;28;20175;-73
2022/03/05 06:28:08;;;;;;;8.52;5.45;;;27.80;99.90;;;;;;5009312;28;20018;-72
2022/03/05 06:30:36;;;;;;;11.98;5.97;;;27.70;99.90;;;;;;5009520;28;20026;-73
2022/03/05 06:33:03;;;;;;;10.35;6.68;;;27.80;99.90;;;;;;4991663;28;20034;-72
2022/03/05 06:35:30;;;;;;;7.05;4.85;;;27.80;99.90;;;;;;5008637;28;20022;-72
2022/03/05 06:37:58;;;;;;;9.60;6.18;;;27.80;99.90;;;;;;5010533;28;20117;-74
2022/03/05 06:40:25;;;;;;;6.75;5.72;;;27.80;99.90;;;;;;5011685;28;20036;-73
2022/03/05 06:42:54;;;;;;;7.85;5.38;;;27.80;99.90;;;;;;5011566;28;20026;-73
2022/03/05 06:45:22;;;;;;;10.35;6.38;;;27.80;99.90;;;;;;5010279;28;20034;-72
2022/03/05 06:47:49;;;;;;;9.00;5.72;;;27.70;99.90;;;;;;5009404;28;20547;-72
2022/03/05 06:50:16;;;;;;;10.05;5.72;;;27.60;99.90;;;;;;5009952;28;20045;-74
2022/03/05 06:52:44;;;;;;;5.97;5.38;;;27.60;99.90;;;;;;5004730;28;20085;-74
2022/03/05 06:55:14;;;;;;;6.72;5.32;;;27.50;99.90;;;;;;5007872;28;20376;-74
2022/03/05 06:57:42;;;;;;;10.15;5.15;;;27.50;99.90;;;;;;5006077;28;20117;-73
2022/03/05 07:00:11;;;;;;;9.40;4.88;;;27.50;99.90;;;;;;5000255;28;20109;-74
2022/03/05 07:02:38;;;;;;;6.90;4.63;;;27.40;99.90;;;;;;4995681;28;20031;-74
2022/03/05 07:05:07;;;;;;;7.20;5.13;;;27.30;99.90;;;;;;5002615;28;20053;-74
2022/03/05 07:07:35;;;;;;;7.20;5.32;;;27.20;99.90;;;;;;5000068;28;20476;-77
2022/03/05 07:10:03;;;;;;;12.50;5.30;;;27.10;99.90;;;;;;5001623;28;20086;-74
2022/03/05 07:12:31;;;;;;;10.05;6.05;;;27.10;99.90;;;;;;5009896;28;20029;-75
2022/03/05 07:14:59;;;;;;;12.68;4.75;;;27.10;99.90;;;;;;5004270;28;20032;-74
2022/03/05 07:17:27;;;;;;;6.15;4.53;;;27.00;99.90;;;;;;5004802;28;20081;-74
2022/03/05 07:19:55;;;;;;;6.60;5.50;;;27.00;99.90;;;;;;5000049;28;20050;-74
2022/03/05 07:22:23;;;;;;;10.93;6.00;;;26.80;99.90;;;;;;4994309;28;20040;-74
2022/03/05 07:24:51;;;;;;;8.13;4.60;;;26.80;99.90;;;;;;5009188;28;20034;-74
2022/03/05 07:27:18;;;;;;;7.72;4.85;;;26.60;99.90;;;;;;5010809;28;20057;-74
2022/03/05 07:29:46;;;;;;;6.80;5.03;;;26.60;99.90;;;;;;5003207;28;20046;-75
2022/03/05 07:32:14;;;;;;;8.63;5.45;;;26.60;99.90;;;;;;4992590;28;20034;-74
2022/03/05 07:34:41;;;;;;;6.55;4.65;;;26.60;99.90;;;;;;4994312;28;20049;-73
2022/03/05 07:37:09;;;;;;;10.60;5.20;;;26.60;99.90;;;;;;5002201;28;20038;-74
2022/03/05 07:39:36;;;;;;;8.02;4.63;;;26.50;99.90;;;;;;5008763;28;20483;-76
2022/03/05 07:42:04;;;;;;;8.32;5.40;;;26.50;99.90;;;;;;5011229;28;20112;-74
2022/03/05 07:44:32;;;;;;;7.25;5.22;;;26.50;99.90;;;;;;5012039;28;20384;-74
2022/03/05 07:46:59;;;;;;;6.93;4.30;;;26.40;99.90;;;;;;5012198;28;20053;-74
2022/03/05 07:49:27;;;;;;;10.30;4.45;;;26.40;99.90;;;;;;4996001;28;20026;-75
2022/03/05 07:51:56;;;;;;;10.30;4.80;;;26.40;99.90;;;;;;4994909;28;20034;-73
2022/03/05 07:54:26;;;;;;;4.22;3.15;;;26.40;99.90;;;;;;4997204;28;20113;-74
2022/03/05 07:56:54;;;;;;;6.95;4.22;;;26.30;99.90;;;;;;5000298;28;20038;-74
2022/03/05 07:59:22;;;;;;;7.35;4.00;;;26.20;99.90;;;;;;5004077;28;20102;-74
2022/03/05 08:01:49;;;;;;;7.65;3.28;;;26.10;99.90;;;;;;5010583;28;20522;-74
2022/03/05 08:04:18;;;;;;;9.63;3.88;;;26.00;99.90;;;;;;5025429;28;20702;-75
2022/03/05 08:06:45;;;;;;;5.55;3.85;;;26.00;99.90;;;;;;5012913;28;20040;-74
2022/03/05 08:09:13;;;;;;;7.68;3.08;;;25.90;99.90;;;;;;5013663;28;20340;-75
2022/03/05 08:11:40;;;;;;;8.18;3.60;;;25.80;99.90;;;;;;5010152;28;20022;-73
2022/03/05 08:14:07;;;;;;;7.70;4.28;;;25.80;99.90;;;;;;4996461;28;20022;-74
2022/03/05 08:16:35;;;;;;;5.60;3.67;;;25.80;99.90;;;;;;5005167;28;20042;-73
2022/03/05 08:19:02;;;;;;;5.78;4.05;;;25.80;99.90;;;;;;4996315;28;20592;-76
2022/03/05 08:21:30;;;;;;;5.65;3.30;;;25.80;99.90;;;;;;5014132;28;20045;-75
2022/03/05 08:23:57;;;;;;;5.47;3.22;;;25.80;99.90;;;;;;5009069;28;20133;-75
2022/03/05 08:26:25;;;;;;;4.85;3.22;;;25.80;99.90;;;;;;5012409;28;20105;-76
2022/03/05 08:28:53;;;;;;;4.72;2.78;;;25.80;99.90;;;;;;5011874;28;20476;-76
2022/03/05 08:31:20;;;;;;;10.02;3.00;;;25.80;99.90;;;;;;5007324;28;20029;-75
2022/03/05 08:33:48;;;;;;;6.95;2.90;;;26.00;99.90;;;;;;4995641;28;20038;-77
2022/03/05 08:36:15;;;;;;;6.75;2.05;;;25.90;99.90;;;;;;5006881;28;20149;-76
2022/03/05 08:38:42;;;;;;;4.97;2.35;;;26.00;99.90;;;;;;5012014;28;20123;-76
2022/03/05 08:41:10;;;;;;;8.45;3.33;;;26.00;99.90;;;;;;4994590;28;20416;-76
2022/03/05 08:43:37;;;;;;;5.63;2.65;;;25.90;99.90;;;;;;4999873;28;20496;-76
2022/03/05 08:46:05;;;;;;;7.10;1.95;;;26.00;99.90;;;;;;5006787;28;20026;-78
2022/03/05 08:48:33;;;;;;;6.65;1.83;;;26.10;99.90;;;;;;5005426;28;20077;-75
2022/03/05 08:51:00;;;;;;;8.50;2.20;;;26.10;99.90;;;;;;4995587;28;20388;-77
2022/03/05 08:53:28;;;;;;;4.35;1.70;;;26.10;99.90;;;;;;5025936;28;20429;-75
2022/03/05 08:55:55;;;;;;;5.63;2.30;;;26.10;99.90;;;;;;4994466;28;20457;-74
2022/03/05 08:58:23;;;;;;;6.10;1.90;;;26.10;99.90;;;;;;4992920;28;20397;-75
2022/03/05 09:00:51;;;;;;;3.75;1.60;;;26.10;99.90;;;;;;5007544;28;20018;-75
2022/03/05 09:03:19;;;;;;;1.50;1.40;;;26.10;99.90;;;;;;4996047;28;20034;-75
2022/03/05 09:05:47;;;;;;;4.18;1.88;;;26.00;99.90;;;;;;5010510;28;20072;-75
2022/03/05 09:08:15;;;;;;;6.30;2.25;;;25.90;99.90;;;;;;5002849;28;20136;-76
2022/03/05 09:10:43;;;;;;;4.47;1.60;;;25.90;99.90;;;;;;5000228;28;20022;-75
2022/03/05 09:13:10;;;;;;;4.93;1.88;;;25.90;99.90;;;;;;5008146;28;20109;-75
2022/03/05 09:15:38;;;;;;;6.65;1.90;;;25.90;99.90;;;;;;5007977;28;20710;-75
2022/03/05 09:18:06;;;;;;;6.32;2.17;;;25.90;99.90;;;;;;4998865;28;20073;-76
2022/03/05 09:20:33;;;;;;;6.05;2.10;;;25.90;99.90;;;;;;5018994;28;20388;-75
2022/03/05 09:23:01;;;;;;;6.80;1.63;;;25.80;99.90;;;;;;5007400;28;20038;-74
2022/03/05 09:25:29;;;;;;;5.45;1.10;;;25.80;99.90;;;;;;5007736;28;20088;-75
2022/03/05 09:27:56;;;;;;;6.32;1.50;;;25.80;99.90;;;;;;5018321;28;20464;-76
2022/03/05 09:30:23;;;;;;;3.38;1.60;;;25.80;99.90;;;;;;5012871;28;20121;-74
2022/03/05 09:32:51;;;;;;;4.18;2.10;;;25.70;99.90;;;;;;5009083;28;20033;-74
2022/03/05 09:35:18;;;;;;;4.60;1.42;;;25.70;99.90;;;;;;5003845;28;20026;-75
2022/03/05 09:37:45;;;;;;;4.72;1.33;;;25.70;99.90;;;;;;5008759;28;20041;-73
2022/03/05 09:40:13;;;;;;;4.00;1.20;;;25.50;99.90;;;;;;5001964;28;20022;-75
2022/03/05 09:42:45;;;;;;;2.58;0.85;;;25.30;99.90;;;;;;5025415;28;20041;-76
2022/03/05 09:45:14;;;;;;;6.57;1.40;;;25.20;99.90;;;;;;5011275;28;20025;-75
2022/03/05 09:47:43;;;;;;;5.60;1.08;;;25.20;99.90;;;;;;5012302;28;20078;-75
2022/03/05 09:50:11;;;;;;;4.65;1.65;;;25.20;99.90;;;;;;5011029;28;20104;-75
2022/03/05 09:52:38;;;;;;;7.20;1.10;;;25.20;99.90;;;;;;5012172;28;20081;-75
2022/03/05 09:55:07;;;;;;;5.43;1.63;;;25.10;99.90;;;;;;5010595;28;20109;-74
2022/03/05 09:57:34;;;;;;;7.55;1.52;;;25.00;99.90;;;;;;5011305;28;20112;-75
2022/03/05 10:00:03;;;;;;;5.93;1.40;;;25.00;99.90;;;;;;4994086;28;20034;-74
2022/03/05 10:02:31;;;;;;;5.75;1.33;;;24.90;99.90;;;;;;5012353;28;20136;-75
2022/03/05 10:05:17;;;;;;;8.10;1.25;;;24.90;99.90;;;;;;4997274;28;20037;-75
2022/03/05 10:08:10;;;;;;;5.75;1.20;;;24.90;99.90;;;;;;5011643;28;20104;-75
2022/03/05 10:10:50;;;;;;;6.45;1.75;;;24.90;99.90;;;;;;4999874;28;20061;-75
2022/03/05 10:13:28;;;;;;;3.33;1.33;;;24.90;99.90;;;;;;5010258;28;20063;-76
2022/03/05 10:16:01;;;;;;;5.38;1.10;;;24.90;99.90;;;;;;5010165;28;20026;-75
2022/03/05 10:18:33;;;;;;;4.40;1.55;;;24.80;99.90;;;;;;5005343;28;20368;-75
2022/03/05 10:21:05;;;;;;;3.63;0.80;;;24.80;99.90;;;;;;5006067;28;20022;-74
2022/03/05 10:23:36;;;;;;;1.30;0.20;;;24.70;99.90;;;;;;5011075;28;20034;-74
2022/03/05 10:26:08;;;;;;;2.17;0.70;;;24.50;99.90;;;;;;5005612;28;20629;-76
2022/03/05 10:28:39;;;;;;;3.42;0.60;;;24.20;99.90;;;;;;5010472;28;20044;-79
2022/03/05 10:31:12;;;;;;;2.42;0.50;;;23.80;99.90;;;;;;4996941;28;20045;-78
2022/03/05 10:33:44;;;;;;;3.65;1.08;;;23.30;99.90;;;;;;5002260;28;20190;-77
2022/03/05 10:36:20;;;;;;;3.90;0.40;;;22.90;99.90;;;;;;4998313;28;20049;-78
2022/03/05 10:39:00;;;;;;;1.40;0.40;;;22.70;99.90;;;;;;5003224;28;20392;-78
2022/03/05 10:41:36;;;;;;;2.67;0.45;;;22.40;99.90;;;;;;4996973;28;20064;-77
2022/03/05 10:44:17;;;;;;;0.95;0.38;;;22.30;99.90;;;;;;5009547;28;20104;-77
2022/03/05 10:46:48;;;;;;;8.70;0.82;;;22.20;99.90;;;;;;4991877;28;20791;-79
2022/03/05 10:49:19;;;;;;;3.08;0.88;;;22.10;99.90;;;;;;4996703;28;20116;-75
2022/03/05 10:52:10;;;;;;;4.47;1.50;;;21.90;99.90;;;;;;5001524;28;20025;-79
2022/03/05 10:54:43;;;;;;;3.13;0.60;;;21.70;99.90;;;;;;5015576;28;20559;-78
2022/03/05 10:57:15;;;;;;;1.73;0.50;;;21.50;99.90;;;;;;5009705;28;20042;-77
2022/03/05 10:59:50;;;;;;;1.17;0.65;;;21.40;99.90;;;;;;5006370;28;20492;-77
2022/03/05 11:02:22;;;;;;;2.38;0.50;;;21.30;99.90;;;;;;5010806;28;20523;-77
2022/03/05 11:04:51;;;;;;;3.38;0.75;;;21.30;99.90;;;;;;5006255;28;20026;-78
2022/03/05 11:07:23;;;;;;;0.40;0.20;;;21.20;99.90;;;;;;5009179;28;20033;-77
2022/03/05 11:09:54;;;;;;;1.58;0.45;;;21.00;99.90;;;;;;5012124;28;20041;-79
2022/03/05 11:12:21;;;;;;;0.82;0.55;;;20.90;99.90;;;;;;5002580;28;20034;-77
2022/03/05 11:14:51;;;;;;;1.25;0.30;;;20.80;99.90;;;;;;5009015;28;20030;-78
2022/03/05 11:17:19;;;;;;;2.60;0.40;;;20.90;99.90;;;;;;5005863;28;20133;-78
2022/03/05 11:19:47;;;;;;;1.52;0.50;;;20.80;99.90;;;;;;4997971;28;20038;-76
2022/03/05 11:22:17;;;;;;;2.47;0.35;;;20.80;99.90;;;;;;5008215;28;20026;-77
2022/03/05 11:24:45;;;;;;;1.75;0.52;;;20.80;99.90;;;;;;5003582;28;20030;-78
2022/03/05 11:27:17;;;;;;;4.07;1.15;;;20.80;99.90;;;;;;5009713;28;20440;-77
2022/03/05 11:29:57;;;;;;;0.75;0.22;;;20.80;99.90;;;;;;5008633;28;20117;-79
2022/03/05 11:32:30;;;;;;;2.97;0.65;;;20.80;99.90;;;;;;5006824;28;20021;-83
2022/03/05 11:34:58;;;;;;;0.65;0.30;;;20.80;99.90;;;;;;4997668;28;20122;-78
2022/03/05 11:37:31;;;;;;;1.83;0.38;;;20.80;99.90;;;;;;4998069;28;20045;-77
2022/03/05 11:40:04;;;;;;;1.27;0.30;;;20.80;99.90;;;;;;4999360;28;20030;-79
2022/03/05 11:42:37;;;;;;;1.75;0.65;;;20.80;99.90;;;;;;4999380;28;20499;-82
2022/03/05 11:45:32;;;;;;;3.95;0.40;;;20.90;99.90;;;;;;5009429;28;20029;-79
2022/03/05 11:48:30;;;;;;;1.80;0.52;;;20.90;99.90;;;;;;4995475;28;20575;-79
2022/03/05 11:51:01;;;;;;;2.60;0.52;;;20.80;99.90;;;;;;4994641;28;20172;-78
2022/03/05 11:53:29;;;;;;;1.05;0.50;;;20.80;99.90;;;;;;5005083;28;20038;-78
2022/03/05 11:55:57;;;;;;;2.42;0.77;;;20.80;99.90;;;;;;5008272;28;20034;-79
2022/03/05 11:58:30;;;;;;;1.77;0.57;;;20.80;99.90;;;;;;4994877;28;20042;-79
2022/03/05 12:00:58;;;;;;;0.75;0.20;;;20.80;99.90;;;;;;5009424;28;20030;-78
2022/03/05 12:03:43;;;;;;;1.08;0.47;;;20.70;99.90;;;;;;5010220;28;20038;-80
2022/03/05 12:06:13;;;;;;;2.30;0.40;;;20.70;99.90;;;;;;4993541;28;20033;-74
2022/03/05 12:08:41;;;;;;;2.10;0.30;;;20.70;99.90;;;;;;4992633;28;20746;-78
2022/03/05 12:11:16;;;;;;;0.82;0.30;;;20.60;99.90;;;;;;4995010;28;20060;-80
2022/03/05 12:13:46;;;;;;;1.13;0.50;;;20.60;99.90;;;;;;5007699;28;20030;-79
2022/03/05 12:16:24;;;;;;;1.33;0.55;;;20.60;99.90;;;;;;5002717;28;20034;-79
2022/03/05 12:18:54;;;;;;;1.63;0.40;;;20.60;99.90;;;;;;5005067;28;20514;-78
2022/03/05 12:21:33;;;;;;;0.75;0.32;;;20.60;99.90;;;;;;5009324;28;20152;-76
2022/03/05 12:24:07;;;;;;;1.45;0.45;;;20.60;99.90;;;;;;5007292;28;20391;-78
2022/03/05 12:26:41;;;;;;;0.73;0.30;;;20.60;99.90;;;;;;4992951;28;20572;-79
2022/03/05 12:29:09;;;;;;;1.00;0.28;;;20.60;99.90;;;;;;4995835;28;20516;-79
2022/03/05 12:31:45;;;;;;;1.30;0.30;;;20.60;99.90;;;;;;4995456;28;20489;-80
2022/03/05 12:34:13;;;;;;;1.40;0.77;;;20.70;99.90;;;;;;5005031;28;20030;-78
2022/03/05 12:36:45;;;;;;;3.78;0.50;;;20.70;99.90;;;;;;5024682;28;20037;-79
2022/03/05 12:39:14;;;;;;;1.42;0.50;;;20.60;99.90;;;;;;5011335;28;20365;-79
2022/03/05 12:41:46;;;;;;;0.25;0.20;;;20.70;99.90;;;;;;5010628;28;20084;-79
2022/03/05 12:44:14;;;;;;;0.52;0.50;;;20.70;99.90;;;;;;5002975;28;20912;-80
2022/03/05 12:46:42;;;;;;;0.90;0.30;;;20.70;99.90;;;;;;5003383;28;20042;-79
2022/03/05 12:49:10;;;;;;;0.60;0.30;;;20.70;99.90;;;;;;5009534;28;20041;-77
2022/03/05 12:51:37;;;;;;;0.95;0.20;;;20.80;99.90;;;;;;5010571;28;20040;-80
2022/03/05 12:54:05;;;;;;;0.60;0.40;;;20.80;99.90;;;;;;5029138;28;20025;-79
2022/03/05 12:56:34;;;;;;;0.50;0.20;;;20.70;99.90;;;;;;5013068;28;20029;-77
2022/03/05 12:59:04;;;;;;;1.05;0.15;;;20.70;99.90;;;;;;5012466;28;20104;-77
2022/03/05 13:01:31;;;;;;;1.30;0.20;;;20.70;99.90;;;;;;5012909;28;20124;-76
2022/03/05 13:03:59;;;;;;;0.40;0.20;;;20.70;99.90;;;;;;5008957;28;20037;-78
2022/03/05 13:06:27;;;;;;;3.20;0.30;;;20.70;99.90;;;;;;5000026;28;20114;-78
2022/03/05 13:08:55;;;;;;;0.43;0.17;;;20.70;99.90;;;;;;4999735;28;20034;-75
2022/03/05 13:11:25;;;;;;;1.48;0.20;;;20.70;99.90;;;;;;5009595;28;20087;-77
2022/03/05 13:13:59;;;;;;;1.63;0.35;;;20.70;99.90;;;;;;5011879;28;20056;-75
2022/03/05 13:16:39;;;;;;;0.50;0.30;;;20.70;99.90;;;;;;5002403;28;20045;-77